Costa Mediterranea — IBCF — position and weather

sailwx.info

Track history (hours):
 
Tides and Currents Weather Stations Pressure Air Temp Water Temp Dewpoint Dewpoint Depression Visibility Wind Speed Wind Dir Waves Ship Positions

Costa Mediterranea

Last reported at 2019-Jul-22 08:28 UTC. Time now 2019-Jul-22 13:59 UTC.
Position N 56°44' E 005°55'.

Length 293 m; draft 8 m.

Type: Passenger vessel. MMSI: 247088200.

Date/timePositionNaut miles runAvg speedWind from/ knotsBaromVisibWave heightAir tempDewpointWater temp
2019-Jul-22 08:28N 56°44' E 005°55'710.2
2019-Jul-22 07:47N 56°51' E 005°51'310.0
2019-Jul-22 07:25N 56°54' E 005°50'410.0
2019-Jul-22 07:00N 56°58' E 005°48'510.2
2019-Jul-22 06:30N 57°03' E 005°45'510.3
2019-Jul-22 06:00N 57°08' E 005°43'510.5
2019-Jul-22 05:30N 57°13' E 005°40'510.8
2019-Jul-22 05:00N 57°18' E 005°37'510.7
2019-Jul-22 04:30N 57°24' E 005°35'510.8
2019-Jul-22 04:00N 57°29' E 005°32'510.3
2019-Jul-22 03:31N 57°34' E 005°30'510.1
2019-Jul-22 03:01N 57°39' E 005°27'510.2
2019-Jul-22 02:30N 57°44' E 005°24'510.3
2019-Jul-22 02:00N 57°49' E 005°22'510.2
2019-Jul-22 01:30N 57°53' E 005°19'510.2
2019-Jul-22 01:00N 57°58' E 005°17'510.2
2019-Jul-22 00:30N 58°03' E 005°14'510.1
2019-Jul-22 00:00N 58°08' E 005°12'510.5
2019-Jul-21 23:30N 58°13' E 005°09'510.5
2019-Jul-21 23:01N 58°18' E 005°06'510.7
2019-Jul-21 22:30N 58°24' E 005°07'510.7
2019-Jul-21 22:00N 58°29' E 005°08'510.6
2019-Jul-21 21:30N 58°34' E 005°09'510.5
2019-Jul-21 21:00N 58°39' E 005°09'510.1
2019-Jul-21 20:31N 58°44' E 005°09'4 8.7
2019-Jul-21 20:00N 58°49' E 005°10'4 8.4
2019-Jul-21 19:31N 58°51' E 005°16'510.1
2019-Jul-21 19:00N 58°51' E 005°26'4 8.0
2019-Jul-21 18:30N 58°54' E 005°31'510.1
2019-Jul-21 18:00N 58°59' E 005°33'4 7.9
2019-Jul-21 17:31N 59°02' E 005°37'5 9.9
2019-Jul-21 17:01N 58°59' E 005°43'0 0.6
2019-Jul-21 16:30N 58°58' E 005°44'0 0.0
2019-Jul-21 16:00N 58°58' E 005°44'0 0.0
2019-Jul-21 15:30N 58°58' E 005°44'0 0.0
2019-Jul-21 15:00N 58°58' E 005°44'0 0.0
2019-Jul-21 14:30N 58°58' E 005°44'0 0.0
2019-Jul-21 14:00N 58°58' E 005°44'0 0.0
2019-Jul-21 13:30N 58°58' E 005°44'0 0.0
2019-Jul-21 13:00N 58°58' E 005°44'0 0.0
2019-Jul-21 12:30N 58°58' E 005°44'0 0.0
2019-Jul-21 12:00N 58°58' E 005°44'0 0.0
2019-Jul-21 11:30N 58°58' E 005°44'0 0.0
2019-Jul-21 11:00N 58°58' E 005°44'0 0.0
2019-Jul-21 10:30N 58°58' E 005°44'0 0.0
2019-Jul-21 10:00N 58°58' E 005°44'0 0.0
2019-Jul-21 09:30N 58°58' E 005°44'0 0.0
2019-Jul-21 09:00N 58°58' E 005°44'0 0.0
2019-Jul-21 08:30N 58°58' E 005°44'0 0.0
2019-Jul-21 08:00N 58°58' E 005°44'0 0.0
2019-Jul-21 07:30N 58°58' E 005°44'0 0.0
2019-Jul-21 07:00N 58°58' E 005°44'0 0.0
2019-Jul-21 06:30N 58°58' E 005°44'0 0.4
2019-Jul-21 06:00N 58°59' E 005°44'4 7.3
2019-Jul-21 05:30N 59°01' E 005°39'714.4
2019-Jul-21 05:01N 59°06' E 005°29'713.8
2019-Jul-21 04:31N 59°04' E 005°17'713.8
2019-Jul-21 04:01N 59°04' E 005°03'815.5
2019-Jul-21 03:30N 59°09' E 004°52'714.8
2019-Jul-21 03:00N 59°14' E 004°42'714.6
2019-Jul-21 02:30N 59°21' E 004°39'917.9
2019-Jul-21 02:00N 59°30' E 004°34'918.8
2019-Jul-21 01:30N 59°39' E 004°29'918.7
2019-Jul-21 01:00N 59°48' E 004°28'918.5
2019-Jul-21 00:30N 59°58' E 004°28'918.1
2019-Jul-21 00:00N 60°07' E 004°28'918.0
2019-Jul-20 23:30N 60°16' E 004°27'918.1
2019-Jul-20 23:00N 60°25' E 004°26'917.5
2019-Jul-20 22:30N 60°34' E 004°27'917.4
2019-Jul-20 22:00N 60°42' E 004°28'816.8
2019-Jul-20 21:30N 60°50' E 004°33'917.5
2019-Jul-20 21:00N 60°58' E 004°42'1019.0
2019-Jul-20 20:30N 61°03' E 004°58'917.8
2019-Jul-20 20:00N 61°05' E 005°16'918.0
2019-Jul-20 19:30N 61°06' E 005°35'1019.2
2019-Jul-20 19:00N 61°09' E 005°54'1019.4
2019-Jul-20 18:30N 61°07' E 006°14'918.4
2019-Jul-20 18:00N 61°08' E 006°33'815.7
2019-Jul-20 17:30N 61°10' E 006°48'917.9
2019-Jul-20 17:00N 61°04' E 007°02'714.1
2019-Jul-20 16:30N 60°57' E 007°08'5 9.0
2019-Jul-20 15:59N 60°53' E 007°08'1 1.7
2019-Jul-20 15:30N 60°52' E 007°07'0 0.0
2019-Jul-20 15:00N 60°52' E 007°07'0 0.0
2019-Jul-20 14:30N 60°52' E 007°07'0 0.0
2019-Jul-20 14:00N 60°52' E 007°07'0 0.0
2019-Jul-20 13:30N 60°52' E 007°07'0 0.0
2019-Jul-20 13:00N 60°52' E 007°07'0 0.0
2019-Jul-20 12:30N 60°52' E 007°07'0 0.0
2019-Jul-20 12:00N 60°52' E 007°07'0 0.0
2019-Jul-20 11:30N 60°52' E 007°07'0 0.0
2019-Jul-20 11:00N 60°52' E 007°07'0 0.0
2019-Jul-20 10:30N 60°52' E 007°07'0 0.0
2019-Jul-20 10:00N 60°52' E 007°07'0 0.0
2019-Jul-20 09:30N 60°52' E 007°07'0 0.0
2019-Jul-20 09:00N 60°52' E 007°07'0 0.0
2019-Jul-20 08:30N 60°52' E 007°07'0 0.0
2019-Jul-20 08:00N 60°52' E 007°07'0 0.0
2019-Jul-20 07:30N 60°52' E 007°07'0 0.0
2019-Jul-20 07:00N 60°52' E 007°07'0 0.0
2019-Jul-20 06:30N 60°52' E 007°07'1 1.7
2019-Jul-20 06:00N 60°53' E 007°08'5 9.4
2019-Jul-20 05:30N 60°57' E 007°07'713.1
2019-Jul-20 05:00N 61°03' E 007°01'816.7
2019-Jul-20 04:30N 61°10' E 006°50'815.9
2019-Jul-20 04:00N 61°09' E 006°34'816.5
2019-Jul-20 03:30N 61°07' E 006°17'918.6
2019-Jul-20 03:00N 61°08' E 005°58'918.4
2019-Jul-20 02:30N 61°07' E 005°39'918.2
2019-Jul-20 02:00N 61°04' E 005°22'917.6
2019-Jul-20 01:30N 61°09' E 005°06'612.3
2019-Jul-20 01:00N 61°13' E 004°57'917.7
2019-Jul-20 00:30N 61°15' E 004°39'918.2
2019-Jul-20 00:00N 61°18' E 004°22'918.4
2019-Jul-19 23:30N 61°23' E 004°06'918.6
2019-Jul-19 23:00N 61°33' E 004°04'918.5
2019-Jul-19 22:30N 61°42' E 004°05'917.8
2019-Jul-19 22:00N 61°51' E 004°03'917.6
2019-Jul-19 21:30N 61°59' E 004°02'816.0
2019-Jul-19 21:00N 62°06' E 004°12'817.5
2019-Jul-19 20:31N 62°10' E 004°27'917.5
2019-Jul-19 20:00N 62°15' E 004°44'917.9
2019-Jul-19 19:30N 62°19' E 005°01'918.2
2019-Jul-19 19:00N 62°24' E 005°18'918.3
2019-Jul-19 18:30N 62°27' E 005°36'1019.3
2019-Jul-19 18:00N 62°27' E 005°57'713.4
2019-Jul-19 17:30N 62°31' E 006°09'714.6
2019-Jul-19 17:00N 62°38' E 006°07'815.7
2019-Jul-19 16:30N 62°38' E 006°24'1019.7
2019-Jul-19 16:00N 62°40' E 006°44'918.1
2019-Jul-19 15:30N 62°40' E 007°04'917.7
2019-Jul-19 15:00N 62°37' E 007°22'713.6
2019-Jul-19 14:30N 62°33' E 007°34'3 6.7
2019-Jul-19 13:59N 62°34' E 007°41'0 0.0
2019-Jul-19 13:29N 62°34' E 007°41'0 0.0
2019-Jul-19 12:59N 62°34' E 007°41'0 0.0
2019-Jul-19 12:29N 62°34' E 007°41'0 0.0
2019-Jul-19 11:59N 62°34' E 007°41'0 0.0
2019-Jul-19 11:29N 62°34' E 007°41'0 0.0
2019-Jul-19 10:59N 62°34' E 007°41'0 0.0
2019-Jul-19 10:29N 62°34' E 007°41'0 0.0
2019-Jul-19 09:59N 62°34' E 007°41'0 0.0
2019-Jul-19 09:29N 62°34' E 007°41'0 0.0
2019-Jul-19 08:59N 62°34' E 007°41'0 0.0
2019-Jul-19 08:29N 62°34' E 007°41'0 0.0
2019-Jul-19 07:59N 62°34' E 007°41'0 0.0
2019-Jul-19 07:29N 62°34' E 007°41'0 0.0
2019-Jul-19 06:59N 62°34' E 007°41'0 0.0
2019-Jul-19 06:29N 62°34' E 007°41'0 0.0
2019-Jul-19 05:59N 62°34' E 007°41'0 0.0
2019-Jul-19 05:29N 62°34' E 007°41'0 0.0
2019-Jul-19 04:59N 62°34' E 007°41'0 0.0
2019-Jul-19 04:28N 62°34' E 007°41'1 1.4
2019-Jul-19 04:00N 62°34' E 007°40'714.2
2019-Jul-19 03:30N 62°35' E 007°24'918.5
2019-Jul-19 02:59N 62°40' E 007°07'816.6
2019-Jul-19 02:30N 62°47' E 006°57'815.0
2019-Jul-19 02:00N 62°54' E 006°52'918.4
2019-Jul-19 01:30N 63°00' E 006°37'918.3
2019-Jul-19 01:00N 63°05' E 006°20'918.7
2019-Jul-19 00:30N 63°10' E 006°02'816.7
2019-Jul-19 00:00N 63°12' E 005°44'918.2
2019-Jul-18 23:30N 63°06' E 005°30'918.3
2019-Jul-18 23:00N 62°60' E 005°15'917.5
2019-Jul-18 22:30N 62°53' E 005°04'1018.5
2019-Jul-18 21:59N 62°45' E 005°16'917.7
2019-Jul-18 21:30N 62°38' E 005°28'816.6
2019-Jul-18 21:00N 62°32' E 005°41'715.0
2019-Jul-18 20:30N 62°28' E 005°54'815.0
2019-Jul-18 20:00N 62°23' E 006°07'815.2
2019-Jul-18 19:30N 62°24' E 006°23'815.2
2019-Jul-18 19:00N 62°27' E 006°39'714.4
2019-Jul-18 18:30N 62°26' E 006°54'714.3
2019-Jul-18 18:00N 62°19' E 006°58'714.2
2019-Jul-18 17:30N 62°12' E 007°02'612.2
2019-Jul-18 17:00N 62°06' E 006°59'510.5
2019-Jul-18 16:30N 62°07' E 007°10'1 1.9
2019-Jul-18 15:58N 62°06' E 007°12'0 0.0
2019-Jul-18 15:28N 62°06' E 007°12'0 0.0
2019-Jul-18 14:58N 62°06' E 007°12'0 0.0
2019-Jul-18 14:28N 62°06' E 007°12'0 0.0
2019-Jul-18 13:58N 62°06' E 007°12'0 0.0
2019-Jul-18 13:28N 62°06' E 007°12'0 0.0
2019-Jul-18 12:58N 62°06' E 007°12'0 0.0
2019-Jul-18 12:28N 62°06' E 007°12'0 0.0
2019-Jul-18 11:58N 62°06' E 007°12'0 0.0
2019-Jul-18 11:28N 62°06' E 007°12'0 0.0
2019-Jul-18 10:58N 62°06' E 007°12'0 0.0
2019-Jul-18 10:28N 62°06' E 007°12'0 0.0
2019-Jul-18 09:58N 62°06' E 007°12'0 0.0
2019-Jul-18 09:28N 62°06' E 007°12'0 0.0
2019-Jul-18 09:00N 62°06' E 007°12'0 0.0
2019-Jul-18 08:30N 62°06' E 007°12'1 1.2
2019-Jul-18 08:00N 62°07' E 007°11'610.9
2019-Jul-18 07:29N 62°06' E 006°59'3 6.7
2019-Jul-18 07:01N 62°05' E 006°53'0 0.1
2019-Jul-18 06:31N 62°05' E 006°53'0 0.0
2019-Jul-18 05:55N 62°05' E 006°53'0 0.0
2019-Jul-18 05:30N 62°05' E 006°53'2 4.3
2019-Jul-18 05:00N 62°07' E 006°56'613.2
2019-Jul-18 04:30N 62°13' E 007°01'714.0
2019-Jul-18 04:00N 62°19' E 006°57'816.6
2019-Jul-18 03:30N 62°27' E 006°49'917.6
2019-Jul-18 03:00N 62°25' E 006°31'918.3
2019-Jul-18 02:30N 62°23' E 006°11'715.1
2019-Jul-18 02:00N 62°27' E 005°58'714.0
2019-Jul-18 01:30N 62°30' E 005°43'917.8
2019-Jul-18 01:00N 62°27' E 005°25'1019.3
2019-Jul-18 00:30N 62°22' E 005°08'918.6
2019-Jul-18 00:00N 62°15' E 004°55'918.8
2019-Jul-17 23:30N 62°06' E 004°46'918.9
2019-Jul-17 23:00N 61°58' E 004°38'1019.4
2019-Jul-17 22:30N 61°49' E 004°29'1019.5
2019-Jul-17 22:00N 61°39' E 004°26'1020.1
2019-Jul-17 21:30N 61°29' E 004°24'1021.0
2019-Jul-17 21:00N 61°19' E 004°23'1121.2
2019-Jul-17 20:30N 61°08' E 004°23'1121.2
2019-Jul-17 20:00N 60°57' E 004°24'1121.6
2019-Jul-17 19:30N 60°47' E 004°30'1121.2
2019-Jul-17 19:00N 60°37' E 004°37'1121.6
2019-Jul-17 18:30N 60°27' E 004°42'1021.2
2019-Jul-17 18:00N 60°17' E 004°48'1019.4
2019-Jul-17 17:30N 60°07' E 004°54'713.3
2019-Jul-17 17:00N 60°01' E 004°53'1020.3
2019-Jul-17 16:30N 59°51' E 004°55'1021.1
2019-Jul-17 16:00N 59°40' E 004°58'1020.2
2019-Jul-17 15:30N 59°30' E 005°02'815.7
2019-Jul-17 15:00N 59°25' E 005°14'1 1.9
2019-Jul-17 14:30N 59°25' E 005°15'0 0.0
2019-Jul-17 14:00N 59°25' E 005°15'0 0.0
2019-Jul-17 13:30N 59°25' E 005°15'0 0.0
2019-Jul-17 13:00N 59°25' E 005°15'0 0.0
2019-Jul-17 12:30N 59°25' E 005°15'0 0.0
2019-Jul-17 12:00N 59°25' E 005°15'0 0.0
2019-Jul-17 11:30N 59°25' E 005°15'0 0.0
2019-Jul-17 11:00N 59°25' E 005°15'0 0.0
2019-Jul-17 10:30N 59°25' E 005°15'0 0.0
2019-Jul-17 10:00N 59°25' E 005°15'0 0.0
2019-Jul-17 09:30N 59°25' E 005°15'0 0.0
2019-Jul-17 09:00N 59°25' E 005°15'0 0.0
2019-Jul-17 08:30N 59°25' E 005°15'0 0.0
2019-Jul-17 08:00N 59°25' E 005°15'0 0.0
2019-Jul-17 07:30N 59°25' E 005°15'0 0.0
2019-Jul-17 07:00N 59°25' E 005°15'0 0.0
2019-Jul-17 06:30N 59°25' E 005°15'0 0.0
2019-Jul-17 06:00N 59°25' E 005°15'0 0.0
2019-Jul-17 05:30N 59°25' E 005°15'0 0.0
2019-Jul-17 05:00N 59°25' E 005°15'0 0.0
2019-Jul-17 04:30N 59°25' E 005°15'1 2.3
2019-Jul-17 04:00N 59°25' E 005°14'510.5
2019-Jul-17 03:31N 59°28' E 005°05'611.9
2019-Jul-17 03:00N 59°24' E 004°57'714.8
2019-Jul-17 02:30N 59°16' E 004°59'713.7
2019-Jul-17 02:01N 59°10' E 005°04'713.5
2019-Jul-17 01:30N 59°05' E 005°14'3 6.3
2019-Jul-17 01:00N 59°04' E 005°20'5 9.2
2019-Jul-17 00:30N 59°02' E 005°12'510.1
2019-Jul-17 00:00N 58°59' E 005°05'511.0
2019-Jul-16 23:30N 58°55' E 004°57'510.9
2019-Jul-16 23:00N 58°50' E 004°58'510.6
2019-Jul-16 22:29N 58°45' E 004°60'510.8
2019-Jul-16 22:00N 58°39' E 005°01'610.9
2019-Jul-16 21:30N 58°34' E 005°02'511.1
2019-Jul-16 21:00N 58°28' E 005°02'510.7
2019-Jul-16 20:30N 58°23' E 005°03'510.4
2019-Jul-16 20:00N 58°18' E 005°03'610.9
2019-Jul-16 19:29N 58°12' E 005°05'510.7
2019-Jul-16 18:59N 58°07' E 005°07'511.1
2019-Jul-16 18:30N 58°02' E 005°09'511.0
2019-Jul-16 18:00N 57°57' E 005°12'611.1
2019-Jul-16 17:30N 57°51' E 005°13'510.9
2019-Jul-16 17:00N 57°46' E 005°15'611.0
2019-Jul-16 16:30N 57°40' E 005°16'611.1
2019-Jul-16 15:59N 57°35' E 005°18'510.9
2019-Jul-16 15:30N 57°29' E 005°19'610.9
2019-Jul-16 14:58N 57°24' E 005°21'510.9
2019-Jul-16 14:30N 57°18' E 005°22'510.9
2019-Jul-16 14:00N 57°13' E 005°23'510.8
2019-Jul-16 13:30N 57°08' E 005°25'611.0
2019-Jul-16 13:00N 57°02' E 005°26'611.0
2019-Jul-16 12:28N 56°57' E 005°27'511.0
2019-Jul-16 12:00N 56°51' E 005°29'713.2
2019-Jul-16 11:29N 56°45' E 005°30'713.8
2019-Jul-16 11:00N 56°38' E 005°31'713.9
2019-Jul-16 10:30N 56°31' E 005°32'713.7
2019-Jul-16 10:00N 56°24' E 005°33'713.8
2019-Jul-16 09:30N 56°17' E 005°33'713.9
2019-Jul-16 09:00N 56°10' E 005°34'713.9
2019-Jul-16 08:30N 56°03' E 005°34'713.8
2019-Jul-16 08:01N 55°57' E 005°35'713.8
2019-Jul-16 07:31N 55°50' E 005°35'713.8
2019-Jul-16 07:00N 55°43' E 005°36'713.7
2019-Jul-16 06:30N 55°36' E 005°36'713.7
2019-Jul-16 06:00N 55°29' E 005°37'713.7
2019-Jul-16 05:30N 55°22' E 005°35'713.9
2019-Jul-16 05:00N 55°15' E 005°33'713.9
2019-Jul-16 04:30N 55°09' E 005°31'713.9
2019-Jul-16 03:58N 55°01' E 005°30'714.3
2019-Jul-16 03:30N 54°55' E 005°26'714.3
2019-Jul-16 03:00N 54°48' E 005°23'7114.1
2019-Jul-15 21:59N 53°39' E 004°52'813.9
2019-Jul-15 21:24N 53°32' E 004°48'1313.9
2019-Jul-15 20:29N 53°20' E 004°39'713.9
2019-Jul-15 20:00N 53°14' E 004°35'713.9
2019-Jul-15 19:28N 53°08' E 004°29'714.0
2019-Jul-15 18:57N 53°01' E 004°22'614.1
2019-Jul-15 18:30N 52°56' E 004°18'714.2
2019-Jul-15 18:00N 52°49' E 004°13'714.3
2019-Jul-15 17:30N 52°43' E 004°06'714.6
2019-Jul-15 17:01N 52°36' E 004°06'713.9
2019-Jul-15 16:31N 52°31' E 004°13'713.8
2019-Jul-15 16:00N 52°29' E 004°24'510.7
2019-Jul-15 15:30N 52°28' E 004°33'1 1.7
2019-Jul-15 15:00N 52°28' E 004°34'0 0.0
2019-Jul-15 14:30N 52°28' E 004°34'0 0.0
2019-Jul-15 14:00N 52°28' E 004°34'0 0.0
2019-Jul-15 13:30N 52°28' E 004°34'0 0.0
2019-Jul-15 13:00N 52°28' E 004°34'0 0.0
2019-Jul-15 12:30N 52°28' E 004°34'0 0.0
2019-Jul-15 12:00N 52°28' E 004°34'0 0.0
2019-Jul-15 11:30N 52°28' E 004°34'0 0.0
2019-Jul-15 11:00N 52°28' E 004°34'0 0.0
2019-Jul-15 10:30N 52°28' E 004°34'0 0.0
2019-Jul-15 09:57N 52°28' E 004°34'0 0.0
2019-Jul-15 09:30N 52°28' E 004°34'0 0.0
2019-Jul-15 09:00N 52°28' E 004°34'0 0.0
2019-Jul-15 08:30N 52°28' E 004°34'0 0.0
2019-Jul-15 08:00N 52°28' E 004°34'0 0.0
2019-Jul-15 07:30N 52°28' E 004°34'0 0.0
2019-Jul-15 07:00N 52°28' E 004°34'0 0.0
2019-Jul-15 06:30N 52°28' E 004°34'0 0.0
2019-Jul-15 06:00N 52°28' E 004°34'0 0.0
2019-Jul-15 05:30N 52°28' E 004°34'0 0.5
2019-Jul-15 05:01N 52°28' E 004°34'4 8.3
2019-Jul-15 04:30N 52°29' E 004°27'714.2
2019-Jul-15 04:00N 52°30' E 004°16'714.8
2019-Jul-15 03:30N 52°34' E 004°06'917.5
2019-Jul-15 03:00N 52°42' E 003°59'917.2
2019-Jul-15 02:30N 52°50' E 003°58'816.6
2019-Jul-15 02:00N 52°58' E 004°02'817.0
2019-Jul-15 01:30N 53°04' E 004°12'917.4
2019-Jul-15 01:00N 53°10' E 004°22'918.2
2019-Jul-15 00:30N 53°18' E 004°29'919.0
2019-Jul-15 00:00N 53°27' E 004°36'919.0
2019-Jul-14 23:30N 53°31' E 004°50'1219.5
2019-Jul-14 22:53N 53°36' E 005°09'820.0
2019-Jul-14 22:29N 53°39' E 005°22'1719.7
2019-Jul-14 21:37N 53°44' E 005°49'1719.0
2019-Jul-14 20:43N 53°49' E 006°16'418.6
2019-Jul-14 20:30N 53°51' E 006°23'918.2
2019-Jul-14 20:00N 53°53' E 006°38'918.0
2019-Jul-14 19:30N 53°55' E 006°52'917.8
2019-Jul-14 19:00N 53°57' E 007°07'917.7
2019-Jul-14 18:30N 53°59' E 007°22'917.7
2019-Jul-14 17:59N 53°60' E 007°38'817.3
2019-Jul-14 17:30N 53°53' E 007°46'611.7
2019-Jul-14 17:00N 53°52' E 007°56'713.8
2019-Jul-14 16:30N 53°49' E 008°07'815.2
2019-Jul-14 16:00N 53°44' E 008°15'815.2
2019-Jul-14 15:30N 53°39' E 008°25'612.8
2019-Jul-14 15:01N 53°34' E 008°32'1 1.2
2019-Jul-14 14:29N 53°34' E 008°33'0 0.0
2019-Jul-14 13:59N 53°34' E 008°33'0 0.0
2019-Jul-14 13:29N 53°34' E 008°33'0 0.0
2019-Jul-14 12:59N 53°34' E 008°33'0 0.0
2019-Jul-14 12:29N 53°34' E 008°33'0 0.0
2019-Jul-14 11:59N 53°34' E 008°33'0 0.0
2019-Jul-14 11:29N 53°34' E 008°33'0 0.0
2019-Jul-14 10:59N 53°34' E 008°33'0 0.0
2019-Jul-14 10:29N 53°34' E 008°33'0 0.0
2019-Jul-14 09:59N 53°34' E 008°33'0 0.0
2019-Jul-14 09:29N 53°34' E 008°33'0 0.0
2019-Jul-14 08:59N 53°34' E 008°33'0 0.0
2019-Jul-14 08:29N 53°34' E 008°33'0 0.0
2019-Jul-14 07:59N 53°34' E 008°33'0 0.0
2019-Jul-14 07:29N 53°34' E 008°33'0 0.0
2019-Jul-14 06:59N 53°34' E 008°33'0 0.0
2019-Jul-14 06:29N 53°34' E 008°33'0 0.0
2019-Jul-14 05:59N 53°34' E 008°33'0 0.0
2019-Jul-14 05:29N 53°34' E 008°33'1 1.9
2019-Jul-14 05:00N 53°34' E 008°32'510.7
2019-Jul-14 04:30N 53°38' E 008°26'611.7
2019-Jul-14 04:00N 53°42' E 008°19'612.0
2019-Jul-14 03:30N 53°46' E 008°11'612.9
2019-Jul-14 03:00N 53°50' E 008°03'613.0
2019-Jul-14 02:30N 53°52' E 007°52'5 9.3
2019-Jul-14 01:58N 53°53' E 007°44'3 5.7
2019-Jul-14 01:29N 53°54' E 007°40'3310.1
2019-Jul-13 22:11N 54°24' E 007°15'2 9.2
2019-Jul-13 21:59N 54°26' E 007°13'17 9.5
2019-Jul-13 20:08N 54°42' E 007°01'2 9.8
2019-Jul-13 19:54N 54°44' E 006°60'8 9.9
2019-Jul-13 19:06N 54°51' E 006°54'210.1
2019-Jul-13 18:57N 54°53' E 006°53'410.1
2019-Jul-13 18:30N 54°57' E 006°50'510.2
2019-Jul-13 17:58N 55°02' E 006°46'510.3
2019-Jul-13 17:30N 55°06' E 006°43'510.4
2019-Jul-13 17:00N 55°11' E 006°41'510.3
2019-Jul-13 16:30N 55°16' E 006°38'510.3
2019-Jul-13 16:00N 55°21' E 006°35'510.5
2019-Jul-13 15:30N 55°26' E 006°32'510.1
2019-Jul-13 15:00N 55°31' E 006°31'510.2
2019-Jul-13 14:30N 55°36' E 006°29'510.2
2019-Jul-13 14:00N 55°41' E 006°26'510.2
2019-Jul-13 13:30N 55°46' E 006°24'510.2
2019-Jul-13 12:59N 55°51' E 006°21'510.2
2019-Jul-13 12:30N 55°56' E 006°19'510.2
2019-Jul-13 12:00N 56°01' E 006°17'510.2
2019-Jul-13 11:29N 56°06' E 006°14'510.2
2019-Jul-13 11:00N 56°10' E 006°12'510.2
2019-Jul-13 10:30N 56°15' E 006°09'510.4
2019-Jul-13 10:00N 56°20' E 006°07'510.5
2019-Jul-13 09:30N 56°26' E 006°04'510.6
2019-Jul-13 09:00N 56°31' E 006°02'510.4
2019-Jul-13 08:30N 56°36' E 005°59'510.5
2019-Jul-13 08:00N 56°41' E 005°57'510.4
2019-Jul-13 07:29N 56°46' E 005°54'510.5
2019-Jul-13 07:00N 56°51' E 005°51'510.6
2019-Jul-13 06:29N 56°56' E 005°49'510.6
2019-Jul-13 06:00N 57°01' E 005°46'510.2
2019-Jul-13 05:30N 57°06' E 005°44'510.3
2019-Jul-13 05:00N 57°11' E 005°41'510.2
2019-Jul-13 04:30N 57°16' E 005°39'510.3
2019-Jul-13 04:00N 57°21' E 005°36'510.4
2019-Jul-13 03:30N 57°26' E 005°34'510.5
2019-Jul-13 03:00N 57°31' E 005°31'510.5
2019-Jul-13 02:30N 57°36' E 005°28'510.5
2019-Jul-13 02:00N 57°41' E 005°26'510.5
2019-Jul-13 01:30N 57°46' E 005°23'510.4
2019-Jul-13 01:00N 57°51' E 005°20'510.5
2019-Jul-13 00:30N 57°56' E 005°18'510.4
2019-Jul-13 00:00N 58°01' E 005°15'510.4
2019-Jul-12 23:30N 58°06' E 005°12'510.5
2019-Jul-12 23:00N 58°11' E 005°08'510.4
2019-Jul-12 22:30N 58°16' E 005°05'510.6
2019-Jul-12 22:00N 58°21' E 005°07'611.0
2019-Jul-12 21:29N 58°27' E 005°09'510.8
2019-Jul-12 21:00N 58°32' E 005°10'510.4
2019-Jul-12 20:30N 58°37' E 005°12'510.1
2019-Jul-12 20:00N 58°42' E 005°14'5 9.8
2019-Jul-12 19:30N 58°47' E 005°15'5 9.5
2019-Jul-12 19:00N 58°50' E 005°22'5 9.7
2019-Jul-12 18:28N 58°52' E 005°31'612.0
2019-Jul-12 18:01N 58°58' E 005°33'5 9.9
2019-Jul-12 17:30N 59°02' E 005°36'5 9.9
2019-Jul-12 17:00N 58°59' E 005°43'1 1.1
2019-Jul-12 16:30N 58°58' E 005°44'0 0.0
2019-Jul-12 16:00N 58°58' E 005°44'0 0.0
2019-Jul-12 15:30N 58°58' E 005°44'0 0.0
2019-Jul-12 15:00N 58°58' E 005°44'0 0.0
2019-Jul-12 14:30N 58°58' E 005°44'0 0.0
2019-Jul-12 14:00N 58°58' E 005°44'0 0.0
2019-Jul-12 13:30N 58°58' E 005°44'0 0.0
2019-Jul-12 13:00N 58°58' E 005°44'0 0.0
2019-Jul-12 12:30N 58°58' E 005°44'0 0.0
2019-Jul-12 12:00N 58°58' E 005°44'0 0.0
2019-Jul-12 11:30N 58°58' E 005°44'0 0.0
2019-Jul-12 11:00N 58°58' E 005°44'0 0.0
2019-Jul-12 10:30N 58°58' E 005°44'0 0.0
2019-Jul-12 10:00N 58°58' E 005°44'0 0.0
2019-Jul-12 09:30N 58°58' E 005°44'0 0.0
2019-Jul-12 09:00N 58°58' E 005°44'0 0.0
2019-Jul-12 08:30N 58°58' E 005°44'  
Track history (hours):
 
Tides and Currents Weather Stations Pressure Air Temp Water Temp Dewpoint Dewpoint Depression Visibility Wind Speed Wind Dir Waves Ship Positions

Costa Mediterranea

Last reported at 2019-Jul-22 08:28 UTC. Time now 2019-Jul-22 13:59 UTC.
Position N 56°44' E 005°55'.

Length 293 m; draft 8 m.

Type: Passenger vessel. MMSI: 247088200.

Date/timePositionNaut miles runAvg speedWind from/ knotsBaromVisibWave heightAir tempDewpointWater temp
2019-Jul-22 08:28N 56°44' E 005°55'710.2
2019-Jul-22 07:47N 56°51' E 005°51'310.0
2019-Jul-22 07:25N 56°54' E 005°50'410.0
2019-Jul-22 07:00N 56°58' E 005°48'510.2
2019-Jul-22 06:30N 57°03' E 005°45'510.3
2019-Jul-22 06:00N 57°08' E 005°43'510.5
2019-Jul-22 05:30N 57°13' E 005°40'510.8
2019-Jul-22 05:00N 57°18' E 005°37'510.7
2019-Jul-22 04:30N 57°24' E 005°35'510.8
2019-Jul-22 04:00N 57°29' E 005°32'510.3
2019-Jul-22 03:31N 57°34' E 005°30'510.1
2019-Jul-22 03:01N 57°39' E 005°27'510.2
2019-Jul-22 02:30N 57°44' E 005°24'510.3
2019-Jul-22 02:00N 57°49' E 005°22'510.2
2019-Jul-22 01:30N 57°53' E 005°19'510.2
2019-Jul-22 01:00N 57°58' E 005°17'510.2
2019-Jul-22 00:30N 58°03' E 005°14'510.1
2019-Jul-22 00:00N 58°08' E 005°12'510.5
2019-Jul-21 23:30N 58°13' E 005°09'510.5
2019-Jul-21 23:01N 58°18' E 005°06'510.7
2019-Jul-21 22:30N 58°24' E 005°07'510.7
2019-Jul-21 22:00N 58°29' E 005°08'510.6
2019-Jul-21 21:30N 58°34' E 005°09'510.5
2019-Jul-21 21:00N 58°39' E 005°09'510.1
2019-Jul-21 20:31N 58°44' E 005°09'4 8.7
2019-Jul-21 20:00N 58°49' E 005°10'4 8.4
2019-Jul-21 19:31N 58°51' E 005°16'510.1
2019-Jul-21 19:00N 58°51' E 005°26'4 8.0
2019-Jul-21 18:30N 58°54' E 005°31'510.1
2019-Jul-21 18:00N 58°59' E 005°33'4 7.9
2019-Jul-21 17:31N 59°02' E 005°37'5 9.9
2019-Jul-21 17:01N 58°59' E 005°43'0 0.6
2019-Jul-21 16:30N 58°58' E 005°44'0 0.0
2019-Jul-21 16:00N 58°58' E 005°44'0 0.0
2019-Jul-21 15:30N 58°58' E 005°44'0 0.0
2019-Jul-21 15:00N 58°58' E 005°44'0 0.0
2019-Jul-21 14:30N 58°58' E 005°44'0 0.0
2019-Jul-21 14:00N 58°58' E 005°44'0 0.0
2019-Jul-21 13:30N 58°58' E 005°44'0 0.0
2019-Jul-21 13:00N 58°58' E 005°44'0 0.0
2019-Jul-21 12:30N 58°58' E 005°44'0 0.0
2019-Jul-21 12:00N 58°58' E 005°44'0 0.0
2019-Jul-21 11:30N 58°58' E 005°44'0 0.0
2019-Jul-21 11:00N 58°58' E 005°44'0 0.0
2019-Jul-21 10:30N 58°58' E 005°44'0 0.0
2019-Jul-21 10:00N 58°58' E 005°44'0 0.0
2019-Jul-21 09:30N 58°58' E 005°44'0 0.0
2019-Jul-21 09:00N 58°58' E 005°44'0 0.0
2019-Jul-21 08:30N 58°58' E 005°44'0 0.0
2019-Jul-21 08:00N 58°58' E 005°44'0 0.0
2019-Jul-21 07:30N 58°58' E 005°44'0 0.0
2019-Jul-21 07:00N 58°58' E 005°44'0 0.0
2019-Jul-21 06:30N 58°58' E 005°44'0 0.4
2019-Jul-21 06:00N 58°59' E 005°44'4 7.3
2019-Jul-21 05:30N 59°01' E 005°39'714.4
2019-Jul-21 05:01N 59°06' E 005°29'713.8
2019-Jul-21 04:31N 59°04' E 005°17'713.8
2019-Jul-21 04:01N 59°04' E 005°03'815.5
2019-Jul-21 03:30N 59°09' E 004°52'714.8
2019-Jul-21 03:00N 59°14' E 004°42'714.6
2019-Jul-21 02:30N 59°21' E 004°39'917.9
2019-Jul-21 02:00N 59°30' E 004°34'918.8
2019-Jul-21 01:30N 59°39' E 004°29'918.7
2019-Jul-21 01:00N 59°48' E 004°28'918.5
2019-Jul-21 00:30N 59°58' E 004°28'918.1
2019-Jul-21 00:00N 60°07' E 004°28'918.0
2019-Jul-20 23:30N 60°16' E 004°27'918.1
2019-Jul-20 23:00N 60°25' E 004°26'917.5
2019-Jul-20 22:30N 60°34' E 004°27'917.4
2019-Jul-20 22:00N 60°42' E 004°28'816.8
2019-Jul-20 21:30N 60°50' E 004°33'917.5
2019-Jul-20 21:00N 60°58' E 004°42'1019.0
2019-Jul-20 20:30N 61°03' E 004°58'917.8
2019-Jul-20 20:00N 61°05' E 005°16'918.0
2019-Jul-20 19:30N 61°06' E 005°35'1019.2
2019-Jul-20 19:00N 61°09' E 005°54'1019.4
2019-Jul-20 18:30N 61°07' E 006°14'918.4
2019-Jul-20 18:00N 61°08' E 006°33'815.7
2019-Jul-20 17:30N 61°10' E 006°48'917.9
2019-Jul-20 17:00N 61°04' E 007°02'714.1
2019-Jul-20 16:30N 60°57' E 007°08'5 9.0
2019-Jul-20 15:59N 60°53' E 007°08'1 1.7
2019-Jul-20 15:30N 60°52' E 007°07'0 0.0
2019-Jul-20 15:00N 60°52' E 007°07'0 0.0
2019-Jul-20 14:30N 60°52' E 007°07'0 0.0
2019-Jul-20 14:00N 60°52' E 007°07'0 0.0
2019-Jul-20 13:30N 60°52' E 007°07'0 0.0
2019-Jul-20 13:00N 60°52' E 007°07'0 0.0
2019-Jul-20 12:30N 60°52' E 007°07'0 0.0
2019-Jul-20 12:00N 60°52' E 007°07'0 0.0
2019-Jul-20 11:30N 60°52' E 007°07'0 0.0
2019-Jul-20 11:00N 60°52' E 007°07'0 0.0
2019-Jul-20 10:30N 60°52' E 007°07'0 0.0
2019-Jul-20 10:00N 60°52' E 007°07'0 0.0
2019-Jul-20 09:30N 60°52' E 007°07'0 0.0
2019-Jul-20 09:00N 60°52' E 007°07'0 0.0
2019-Jul-20 08:30N 60°52' E 007°07'0 0.0
2019-Jul-20 08:00N 60°52' E 007°07'0 0.0
2019-Jul-20 07:30N 60°52' E 007°07'0 0.0
2019-Jul-20 07:00N 60°52' E 007°07'0 0.0
2019-Jul-20 06:30N 60°52' E 007°07'1 1.7
2019-Jul-20 06:00N 60°53' E 007°08'5 9.4
2019-Jul-20 05:30N 60°57' E 007°07'713.1
2019-Jul-20 05:00N 61°03' E 007°01'816.7
2019-Jul-20 04:30N 61°10' E 006°50'815.9
2019-Jul-20 04:00N 61°09' E 006°34'816.5
2019-Jul-20 03:30N 61°07' E 006°17'918.6
2019-Jul-20 03:00N 61°08' E 005°58'918.4
2019-Jul-20 02:30N 61°07' E 005°39'918.2
2019-Jul-20 02:00N 61°04' E 005°22'917.6
2019-Jul-20 01:30N 61°09' E 005°06'612.3
2019-Jul-20 01:00N 61°13' E 004°57'917.7
2019-Jul-20 00:30N 61°15' E 004°39'918.2
2019-Jul-20 00:00N 61°18' E 004°22'918.4
2019-Jul-19 23:30N 61°23' E 004°06'918.6
2019-Jul-19 23:00N 61°33' E 004°04'918.5
2019-Jul-19 22:30N 61°42' E 004°05'917.8
2019-Jul-19 22:00N 61°51' E 004°03'917.6
2019-Jul-19 21:30N 61°59' E 004°02'816.0
2019-Jul-19 21:00N 62°06' E 004°12'817.5
2019-Jul-19 20:31N 62°10' E 004°27'917.5
2019-Jul-19 20:00N 62°15' E 004°44'917.9
2019-Jul-19 19:30N 62°19' E 005°01'918.2
2019-Jul-19 19:00N 62°24' E 005°18'918.3
2019-Jul-19 18:30N 62°27' E 005°36'1019.3
2019-Jul-19 18:00N 62°27' E 005°57'713.4
2019-Jul-19 17:30N 62°31' E 006°09'714.6
2019-Jul-19 17:00N 62°38' E 006°07'815.7
2019-Jul-19 16:30N 62°38' E 006°24'1019.7
2019-Jul-19 16:00N 62°40' E 006°44'918.1
2019-Jul-19 15:30N 62°40' E 007°04'917.7
2019-Jul-19 15:00N 62°37' E 007°22'713.6
2019-Jul-19 14:30N 62°33' E 007°34'3 6.7
2019-Jul-19 13:59N 62°34' E 007°41'0 0.0
2019-Jul-19 13:29N 62°34' E 007°41'0 0.0
2019-Jul-19 12:59N 62°34' E 007°41'0 0.0
2019-Jul-19 12:29N 62°34' E 007°41'0 0.0
2019-Jul-19 11:59N 62°34' E 007°41'0 0.0
2019-Jul-19 11:29N 62°34' E 007°41'0 0.0
2019-Jul-19 10:59N 62°34' E 007°41'0 0.0
2019-Jul-19 10:29N 62°34' E 007°41'0 0.0
2019-Jul-19 09:59N 62°34' E 007°41'0 0.0
2019-Jul-19 09:29N 62°34' E 007°41'0 0.0
2019-Jul-19 08:59N 62°34' E 007°41'0 0.0
2019-Jul-19 08:29N 62°34' E 007°41'0 0.0
2019-Jul-19 07:59N 62°34' E 007°41'0 0.0
2019-Jul-19 07:29N 62°34' E 007°41'0 0.0
2019-Jul-19 06:59N 62°34' E 007°41'0 0.0
2019-Jul-19 06:29N 62°34' E 007°41'0 0.0
2019-Jul-19 05:59N 62°34' E 007°41'0 0.0
2019-Jul-19 05:29N 62°34' E 007°41'0 0.0
2019-Jul-19 04:59N 62°34' E 007°41'0 0.0
2019-Jul-19 04:28N 62°34' E 007°41'1 1.4
2019-Jul-19 04:00N 62°34' E 007°40'714.2
2019-Jul-19 03:30N 62°35' E 007°24'918.5
2019-Jul-19 02:59N 62°40' E 007°07'816.6
2019-Jul-19 02:30N 62°47' E 006°57'815.0
2019-Jul-19 02:00N 62°54' E 006°52'918.4
2019-Jul-19 01:30N 63°00' E 006°37'918.3
2019-Jul-19 01:00N 63°05' E 006°20'918.7
2019-Jul-19 00:30N 63°10' E 006°02'816.7
2019-Jul-19 00:00N 63°12' E 005°44'918.2
2019-Jul-18 23:30N 63°06' E 005°30'918.3
2019-Jul-18 23:00N 62°60' E 005°15'917.5
2019-Jul-18 22:30N 62°53' E 005°04'1018.5
2019-Jul-18 21:59N 62°45' E 005°16'917.7
2019-Jul-18 21:30N 62°38' E 005°28'816.6
2019-Jul-18 21:00N 62°32' E 005°41'715.0
2019-Jul-18 20:30N 62°28' E 005°54'815.0
2019-Jul-18 20:00N 62°23' E 006°07'815.2
2019-Jul-18 19:30N 62°24' E 006°23'815.2
2019-Jul-18 19:00N 62°27' E 006°39'714.4
2019-Jul-18 18:30N 62°26' E 006°54'714.3
2019-Jul-18 18:00N 62°19' E 006°58'714.2
2019-Jul-18 17:30N 62°12' E 007°02'612.2
2019-Jul-18 17:00N 62°06' E 006°59'510.5
2019-Jul-18 16:30N 62°07' E 007°10'1 1.9
2019-Jul-18 15:58N 62°06' E 007°12'0 0.0
2019-Jul-18 15:28N 62°06' E 007°12'0 0.0
2019-Jul-18 14:58N 62°06' E 007°12'0 0.0
2019-Jul-18 14:28N 62°06' E 007°12'0 0.0
2019-Jul-18 13:58N 62°06' E 007°12'0 0.0
2019-Jul-18 13:28N 62°06' E 007°12'0 0.0
2019-Jul-18 12:58N 62°06' E 007°12'0 0.0
2019-Jul-18 12:28N 62°06' E 007°12'0 0.0
2019-Jul-18 11:58N 62°06' E 007°12'0 0.0
2019-Jul-18 11:28N 62°06' E 007°12'0 0.0
2019-Jul-18 10:58N 62°06' E 007°12'0 0.0
2019-Jul-18 10:28N 62°06' E 007°12'0 0.0
2019-Jul-18 09:58N 62°06' E 007°12'0 0.0
2019-Jul-18 09:28N 62°06' E 007°12'0 0.0
2019-Jul-18 09:00N 62°06' E 007°12'0 0.0
2019-Jul-18 08:30N 62°06' E 007°12'1 1.2
2019-Jul-18 08:00N 62°07' E 007°11'610.9
2019-Jul-18 07:29N 62°06' E 006°59'3 6.7
2019-Jul-18 07:01N 62°05' E 006°53'0 0.1
2019-Jul-18 06:31N 62°05' E 006°53'0 0.0
2019-Jul-18 05:55N 62°05' E 006°53'0 0.0
2019-Jul-18 05:30N 62°05' E 006°53'2 4.3
2019-Jul-18 05:00N 62°07' E 006°56'613.2
2019-Jul-18 04:30N 62°13' E 007°01'714.0
2019-Jul-18 04:00N 62°19' E 006°57'816.6
2019-Jul-18 03:30N 62°27' E 006°49'917.6
2019-Jul-18 03:00N 62°25' E 006°31'918.3
2019-Jul-18 02:30N 62°23' E 006°11'715.1
2019-Jul-18 02:00N 62°27' E 005°58'714.0
2019-Jul-18 01:30N 62°30' E 005°43'917.8
2019-Jul-18 01:00N 62°27' E 005°25'1019.3
2019-Jul-18 00:30N 62°22' E 005°08'918.6
2019-Jul-18 00:00N 62°15' E 004°55'918.8
2019-Jul-17 23:30N 62°06' E 004°46'918.9
2019-Jul-17 23:00N 61°58' E 004°38'1019.4
2019-Jul-17 22:30N 61°49' E 004°29'1019.5
2019-Jul-17 22:00N 61°39' E 004°26'1020.1
2019-Jul-17 21:30N 61°29' E 004°24'1021.0
2019-Jul-17 21:00N 61°19' E 004°23'1121.2
2019-Jul-17 20:30N 61°08' E 004°23'1121.2
2019-Jul-17 20:00N 60°57' E 004°24'1121.6
2019-Jul-17 19:30N 60°47' E 004°30'1121.2
2019-Jul-17 19:00N 60°37' E 004°37'1121.6
2019-Jul-17 18:30N 60°27' E 004°42'1021.2
2019-Jul-17 18:00N 60°17' E 004°48'1019.4
2019-Jul-17 17:30N 60°07' E 004°54'713.3
2019-Jul-17 17:00N 60°01' E 004°53'1020.3
2019-Jul-17 16:30N 59°51' E 004°55'1021.1
2019-Jul-17 16:00N 59°40' E 004°58'1020.2
2019-Jul-17 15:30N 59°30' E 005°02'815.7
2019-Jul-17 15:00N 59°25' E 005°14'1 1.9
2019-Jul-17 14:30N 59°25' E 005°15'0 0.0
2019-Jul-17 14:00N 59°25' E 005°15'0 0.0
2019-Jul-17 13:30N 59°25' E 005°15'0 0.0
2019-Jul-17 13:00N 59°25' E 005°15'0 0.0
2019-Jul-17 12:30N 59°25' E 005°15'0 0.0
2019-Jul-17 12:00N 59°25' E 005°15'0 0.0
2019-Jul-17 11:30N 59°25' E 005°15'0 0.0
2019-Jul-17 11:00N 59°25' E 005°15'0 0.0
2019-Jul-17 10:30N 59°25' E 005°15'0 0.0
2019-Jul-17 10:00N 59°25' E 005°15'0 0.0
2019-Jul-17 09:30N 59°25' E 005°15'0 0.0
2019-Jul-17 09:00N 59°25' E 005°15'0 0.0
2019-Jul-17 08:30N 59°25' E 005°15'0 0.0
2019-Jul-17 08:00N 59°25' E 005°15'0 0.0
2019-Jul-17 07:30N 59°25' E 005°15'0 0.0
2019-Jul-17 07:00N 59°25' E 005°15'0 0.0
2019-Jul-17 06:30N 59°25' E 005°15'0 0.0
2019-Jul-17 06:00N 59°25' E 005°15'0 0.0
2019-Jul-17 05:30N 59°25' E 005°15'0 0.0
2019-Jul-17 05:00N 59°25' E 005°15'0 0.0
2019-Jul-17 04:30N 59°25' E 005°15'1 2.3
2019-Jul-17 04:00N 59°25' E 005°14'510.5
2019-Jul-17 03:31N 59°28' E 005°05'611.9
2019-Jul-17 03:00N 59°24' E 004°57'714.8
2019-Jul-17 02:30N 59°16' E 004°59'713.7
2019-Jul-17 02:01N 59°10' E 005°04'713.5
2019-Jul-17 01:30N 59°05' E 005°14'3 6.3
2019-Jul-17 01:00N 59°04' E 005°20'5 9.2
2019-Jul-17 00:30N 59°02' E 005°12'510.1
2019-Jul-17 00:00N 58°59' E 005°05'511.0
2019-Jul-16 23:30N 58°55' E 004°57'510.9
2019-Jul-16 23:00N 58°50' E 004°58'510.6
2019-Jul-16 22:29N 58°45' E 004°60'510.8
2019-Jul-16 22:00N 58°39' E 005°01'610.9
2019-Jul-16 21:30N 58°34' E 005°02'511.1
2019-Jul-16 21:00N 58°28' E 005°02'510.7
2019-Jul-16 20:30N 58°23' E 005°03'510.4
2019-Jul-16 20:00N 58°18' E 005°03'610.9
2019-Jul-16 19:29N 58°12' E 005°05'510.7
2019-Jul-16 18:59N 58°07' E 005°07'511.1
2019-Jul-16 18:30N 58°02' E 005°09'511.0
2019-Jul-16 18:00N 57°57' E 005°12'611.1
2019-Jul-16 17:30N 57°51' E 005°13'510.9
2019-Jul-16 17:00N 57°46' E 005°15'611.0
2019-Jul-16 16:30N 57°40' E 005°16'611.1
2019-Jul-16 15:59N 57°35' E 005°18'510.9
2019-Jul-16 15:30N 57°29' E 005°19'610.9
2019-Jul-16 14:58N 57°24' E 005°21'510.9
2019-Jul-16 14:30N 57°18' E 005°22'510.9
2019-Jul-16 14:00N 57°13' E 005°23'510.8
2019-Jul-16 13:30N 57°08' E 005°25'611.0
2019-Jul-16 13:00N 57°02' E 005°26'611.0
2019-Jul-16 12:28N 56°57' E 005°27'511.0
2019-Jul-16 12:00N 56°51' E 005°29'713.2
2019-Jul-16 11:29N 56°45' E 005°30'713.8
2019-Jul-16 11:00N 56°38' E 005°31'713.9
2019-Jul-16 10:30N 56°31' E 005°32'713.7
2019-Jul-16 10:00N 56°24' E 005°33'713.8
2019-Jul-16 09:30N 56°17' E 005°33'713.9
2019-Jul-16 09:00N 56°10' E 005°34'713.9
2019-Jul-16 08:30N 56°03' E 005°34'713.8
2019-Jul-16 08:01N 55°57' E 005°35'713.8
2019-Jul-16 07:31N 55°50' E 005°35'713.8
2019-Jul-16 07:00N 55°43' E 005°36'713.7
2019-Jul-16 06:30N 55°36' E 005°36'713.7
2019-Jul-16 06:00N 55°29' E 005°37'713.7
2019-Jul-16 05:30N 55°22' E 005°35'713.9
2019-Jul-16 05:00N 55°15' E 005°33'713.9
2019-Jul-16 04:30N 55°09' E 005°31'713.9
2019-Jul-16 03:58N 55°01' E 005°30'714.3
2019-Jul-16 03:30N 54°55' E 005°26'714.3
2019-Jul-16 03:00N 54°48' E 005°23'7114.1
2019-Jul-15 21:59N 53°39' E 004°52'813.9
2019-Jul-15 21:24N 53°32' E 004°48'1313.9
2019-Jul-15 20:29N 53°20' E 004°39'713.9
2019-Jul-15 20:00N 53°14' E 004°35'713.9
2019-Jul-15 19:28N 53°08' E 004°29'714.0
2019-Jul-15 18:57N 53°01' E 004°22'614.1
2019-Jul-15 18:30N 52°56' E 004°18'714.2
2019-Jul-15 18:00N 52°49' E 004°13'714.3
2019-Jul-15 17:30N 52°43' E 004°06'714.6
2019-Jul-15 17:01N 52°36' E 004°06'713.9
2019-Jul-15 16:31N 52°31' E 004°13'713.8
2019-Jul-15 16:00N 52°29' E 004°24'510.7
2019-Jul-15 15:30N 52°28' E 004°33'1 1.7
2019-Jul-15 15:00N 52°28' E 004°34'0 0.0
2019-Jul-15 14:30N 52°28' E 004°34'0 0.0
2019-Jul-15 14:00N 52°28' E 004°34'0 0.0
2019-Jul-15 13:30N 52°28' E 004°34'0 0.0
2019-Jul-15 13:00N 52°28' E 004°34'0 0.0
2019-Jul-15 12:30N 52°28' E 004°34'0 0.0
2019-Jul-15 12:00N 52°28' E 004°34'0 0.0
2019-Jul-15 11:30N 52°28' E 004°34'0 0.0
2019-Jul-15 11:00N 52°28' E 004°34'0 0.0
2019-Jul-15 10:30N 52°28' E 004°34'0 0.0
2019-Jul-15 09:57N 52°28' E 004°34'0 0.0
2019-Jul-15 09:30N 52°28' E 004°34'0 0.0
2019-Jul-15 09:00N 52°28' E 004°34'0 0.0
2019-Jul-15 08:30N 52°28' E 004°34'0 0.0
2019-Jul-15 08:00N 52°28' E 004°34'0 0.0
2019-Jul-15 07:30N 52°28' E 004°34'0 0.0
2019-Jul-15 07:00N 52°28' E 004°34'0 0.0
2019-Jul-15 06:30N 52°28' E 004°34'0 0.0
2019-Jul-15 06:00N 52°28' E 004°34'0 0.0
2019-Jul-15 05:30N 52°28' E 004°34'0 0.5
2019-Jul-15 05:01N 52°28' E 004°34'4 8.3
2019-Jul-15 04:30N 52°29' E 004°27'714.2
2019-Jul-15 04:00N 52°30' E 004°16'714.8
2019-Jul-15 03:30N 52°34' E 004°06'917.5
2019-Jul-15 03:00N 52°42' E 003°59'917.2
2019-Jul-15 02:30N 52°50' E 003°58'816.6
2019-Jul-15 02:00N 52°58' E 004°02'817.0
2019-Jul-15 01:30N 53°04' E 004°12'917.4
2019-Jul-15 01:00N 53°10' E 004°22'918.2
2019-Jul-15 00:30N 53°18' E 004°29'919.0
2019-Jul-15 00:00N 53°27' E 004°36'919.0
2019-Jul-14 23:30N 53°31' E 004°50'1219.5
2019-Jul-14 22:53N 53°36' E 005°09'820.0
2019-Jul-14 22:29N 53°39' E 005°22'1719.7
2019-Jul-14 21:37N 53°44' E 005°49'1719.0
2019-Jul-14 20:43N 53°49' E 006°16'418.6
2019-Jul-14 20:30N 53°51' E 006°23'918.2
2019-Jul-14 20:00N 53°53' E 006°38'918.0
2019-Jul-14 19:30N 53°55' E 006°52'917.8
2019-Jul-14 19:00N 53°57' E 007°07'917.7
2019-Jul-14 18:30N 53°59' E 007°22'917.7
2019-Jul-14 17:59N 53°60' E 007°38'817.3
2019-Jul-14 17:30N 53°53' E 007°46'611.7
2019-Jul-14 17:00N 53°52' E 007°56'713.8
2019-Jul-14 16:30N 53°49' E 008°07'815.2
2019-Jul-14 16:00N 53°44' E 008°15'815.2
2019-Jul-14 15:30N 53°39' E 008°25'612.8
2019-Jul-14 15:01N 53°34' E 008°32'1 1.2
2019-Jul-14 14:29N 53°34' E 008°33'0 0.0
2019-Jul-14 13:59N 53°34' E 008°33'0 0.0
2019-Jul-14 13:29N 53°34' E 008°33'0 0.0
2019-Jul-14 12:59N 53°34' E 008°33'0 0.0
2019-Jul-14 12:29N 53°34' E 008°33'0 0.0
2019-Jul-14 11:59N 53°34' E 008°33'0 0.0
2019-Jul-14 11:29N 53°34' E 008°33'0 0.0
2019-Jul-14 10:59N 53°34' E 008°33'0 0.0
2019-Jul-14 10:29N 53°34' E 008°33'0 0.0
2019-Jul-14 09:59N 53°34' E 008°33'0 0.0
2019-Jul-14 09:29N 53°34' E 008°33'0 0.0
2019-Jul-14 08:59N 53°34' E 008°33'0 0.0
2019-Jul-14 08:29N 53°34' E 008°33'0 0.0
2019-Jul-14 07:59N 53°34' E 008°33'0 0.0
2019-Jul-14 07:29N 53°34' E 008°33'0 0.0
2019-Jul-14 06:59N 53°34' E 008°33'0 0.0
2019-Jul-14 06:29N 53°34' E 008°33'0 0.0
2019-Jul-14 05:59N 53°34' E 008°33'0 0.0
2019-Jul-14 05:29N 53°34' E 008°33'1 1.9
2019-Jul-14 05:00N 53°34' E 008°32'510.7
2019-Jul-14 04:30N 53°38' E 008°26'611.7
2019-Jul-14 04:00N 53°42' E 008°19'612.0
2019-Jul-14 03:30N 53°46' E 008°11'612.9
2019-Jul-14 03:00N 53°50' E 008°03'613.0
2019-Jul-14 02:30N 53°52' E 007°52'5 9.3
2019-Jul-14 01:58N 53°53' E 007°44'3 5.7
2019-Jul-14 01:29N 53°54' E 007°40'3310.1
2019-Jul-13 22:11N 54°24' E 007°15'2 9.2
2019-Jul-13 21:59N 54°26' E 007°13'17 9.5
2019-Jul-13 20:08N 54°42' E 007°01'2 9.8
2019-Jul-13 19:54N 54°44' E 006°60'8 9.9
2019-Jul-13 19:06N 54°51' E 006°54'210.1
2019-Jul-13 18:57N 54°53' E 006°53'410.1
2019-Jul-13 18:30N 54°57' E 006°50'510.2
2019-Jul-13 17:58N 55°02' E 006°46'510.3
2019-Jul-13 17:30N 55°06' E 006°43'510.4
2019-Jul-13 17:00N 55°11' E 006°41'510.3
2019-Jul-13 16:30N 55°16' E 006°38'510.3
2019-Jul-13 16:00N 55°21' E 006°35'510.5
2019-Jul-13 15:30N 55°26' E 006°32'510.1
2019-Jul-13 15:00N 55°31' E 006°31'510.2
2019-Jul-13 14:30N 55°36' E 006°29'510.2
2019-Jul-13 14:00N 55°41' E 006°26'510.2
2019-Jul-13 13:30N 55°46' E 006°24'510.2
2019-Jul-13 12:59N 55°51' E 006°21'510.2
2019-Jul-13 12:30N 55°56' E 006°19'510.2
2019-Jul-13 12:00N 56°01' E 006°17'510.2
2019-Jul-13 11:29N 56°06' E 006°14'510.2
2019-Jul-13 11:00N 56°10' E 006°12'510.2
2019-Jul-13 10:30N 56°15' E 006°09'510.4
2019-Jul-13 10:00N 56°20' E 006°07'510.5
2019-Jul-13 09:30N 56°26' E 006°04'510.6
2019-Jul-13 09:00N 56°31' E 006°02'510.4
2019-Jul-13 08:30N 56°36' E 005°59'510.5
2019-Jul-13 08:00N 56°41' E 005°57'510.4
2019-Jul-13 07:29N 56°46' E 005°54'510.5
2019-Jul-13 07:00N 56°51' E 005°51'510.6
2019-Jul-13 06:29N 56°56' E 005°49'510.6
2019-Jul-13 06:00N 57°01' E 005°46'510.2
2019-Jul-13 05:30N 57°06' E 005°44'510.3
2019-Jul-13 05:00N 57°11' E 005°41'510.2
2019-Jul-13 04:30N 57°16' E 005°39'510.3
2019-Jul-13 04:00N 57°21' E 005°36'510.4
2019-Jul-13 03:30N 57°26' E 005°34'510.5
2019-Jul-13 03:00N 57°31' E 005°31'510.5
2019-Jul-13 02:30N 57°36' E 005°28'510.5
2019-Jul-13 02:00N 57°41' E 005°26'510.5
2019-Jul-13 01:30N 57°46' E 005°23'510.4
2019-Jul-13 01:00N 57°51' E 005°20'510.5
2019-Jul-13 00:30N 57°56' E 005°18'510.4
2019-Jul-13 00:00N 58°01' E 005°15'510.4
2019-Jul-12 23:30N 58°06' E 005°12'510.5
2019-Jul-12 23:00N 58°11' E 005°08'510.4
2019-Jul-12 22:30N 58°16' E 005°05'510.6
2019-Jul-12 22:00N 58°21' E 005°07'611.0
2019-Jul-12 21:29N 58°27' E 005°09'510.8
2019-Jul-12 21:00N 58°32' E 005°10'510.4
2019-Jul-12 20:30N 58°37' E 005°12'510.1
2019-Jul-12 20:00N 58°42' E 005°14'5 9.8
2019-Jul-12 19:30N 58°47' E 005°15'5 9.5
2019-Jul-12 19:00N 58°50' E 005°22'5 9.7
2019-Jul-12 18:28N 58°52' E 005°31'612.0
2019-Jul-12 18:01N 58°58' E 005°33'5 9.9
2019-Jul-12 17:30N 59°02' E 005°36'5 9.9
2019-Jul-12 17:00N 58°59' E 005°43'1 1.1
2019-Jul-12 16:30N 58°58' E 005°44'0 0.0
2019-Jul-12 16:00N 58°58' E 005°44'0 0.0
2019-Jul-12 15:30N 58°58' E 005°44'0 0.0
2019-Jul-12 15:00N 58°58' E 005°44'0 0.0
2019-Jul-12 14:30N 58°58' E 005°44'0 0.0
2019-Jul-12 14:00N 58°58' E 005°44'0 0.0
2019-Jul-12 13:30N 58°58' E 005°44'0 0.0
2019-Jul-12 13:00N 58°58' E 005°44'0 0.0
2019-Jul-12 12:30N 58°58' E 005°44'0 0.0
2019-Jul-12 12:00N 58°58' E 005°44'0 0.0
2019-Jul-12 11:30N 58°58' E 005°44'0 0.0
2019-Jul-12 11:00N 58°58' E 005°44'0 0.0
2019-Jul-12 10:30N 58°58' E 005°44'0 0.0
2019-Jul-12 10:00N 58°58' E 005°44'0 0.0
2019-Jul-12 09:30N 58°58' E 005°44'0 0.0
2019-Jul-12 09:00N 58°58' E 005°44'0 0.0
2019-Jul-12 08:30N 58°58' E 005°44'  

Dump ship's entire track history